Time;durP1;ratioP1;P1;durP2;ratioP2;P2;SDS_P1;SDS_P2;PMS_P1;PMS_P2;Temp;Humidity;BMP_temperature;BMP_pressure;BME280_temperature;BME280_humidity;BME280_pressure;Samples;Min_cycle;Max_cycle;Signal;HPM_P1;HPM_P2
2022/06/16 00:00:23;;;;;;;3.88;1.80;;;;;;;;;;5154948;27;20430;-53
2022/06/16 00:02:51;;;;;;;3.70;1.88;;;;;;;;;;5155238;27;20427;-57
2022/06/16 00:05:22;;;;;;;4.65;1.88;;;;;;;;;;5154980;27;20038;-53
2022/06/16 00:07:50;;;;;;;2.83;2.00;;;;;;;;;;5155088;27;20037;-55
2022/06/16 00:10:18;;;;;;;3.08;1.92;;;;;;;;;;5155046;27;20070;-58
2022/06/16 00:12:45;;;;;;;5.72;4.18;;;;;;;;;;5154415;27;20050;-56
2022/06/16 00:15:17;;;;;;;2.85;1.80;;;;;;;;;;5154428;27;20440;-53
2022/06/16 00:17:44;;;;;;;3.15;2.00;;;;;;;;;;5154715;27;20047;-57
2022/06/16 00:20:12;;;;;;;2.92;2.00;;;;;;;;;;5154888;27;20042;-59
2022/06/16 00:22:40;;;;;;;2.08;1.67;;;;;;;;;;5154587;27;20568;-56
2022/06/16 00:25:08;;;;;;;5.63;2.50;;;;;;;;;;5154488;27;20121;-56
2022/06/16 00:27:35;;;;;;;4.93;2.10;;;;;;;;;;5154655;27;20042;-55
2022/06/16 00:30:04;;;;;;;4.22;2.00;;;;;;;;;;5154829;27;20060;-53
2022/06/16 00:32:32;;;;;;;4.70;2.03;;;;;;;;;;5154867;27;20553;-58
2022/06/16 00:35:00;;;;;;;3.00;2.17;;;;;;;;;;5154479;27;20070;-45
2022/06/16 00:37:27;;;;;;;5.43;1.92;;;;;;;;;;5154461;27;20039;-54
2022/06/16 00:39:54;;;;;;;3.63;2.10;;;;;;;;;;5154146;27;20562;-54
2022/06/16 00:42:24;;;;;;;4.32;2.00;;;;;;;;;;5136184;27;20038;-56
2022/06/16 00:44:54;;;;;;;4.90;2.10;;;;;;;;;;5135871;27;20039;-59
2022/06/16 00:47:26;;;;;;;2.38;1.70;;;;;;;;;;5154255;27;20091;-59
2022/06/16 00:49:58;;;;;;;5.95;2.00;;;;;;;;;;5154228;27;20208;-58
2022/06/16 00:52:30;;;;;;;4.03;2.22;;;;;;;;;;5154091;27;20392;-58
2022/06/16 00:55:09;;;;;;;2.58;1.73;;;;;;;;;;5135690;27;20043;-55
2022/06/16 00:57:46;;;;;;;2.40;1.70;;;;;;;;;;5154083;27;20039;-56
2022/06/16 01:02:47;;;;;;;4.38;1.98;;;;;;;;;;5153839;27;20094;-58
2022/06/16 01:05:15;;;;;;;4.07;1.70;;;;;;;;;;5154148;27;20043;-54
2022/06/16 01:07:45;;;;;;;2.78;1.60;;;;;;;;;;5154002;27;20070;-52
2022/06/16 01:10:14;;;;;;;4.57;1.88;;;;;;;;;;5154069;27;20038;-50
2022/06/16 01:16:17;;;;;;;1.95;1.60;;;;;;;;;;5154029;27;20509;-53
2022/06/16 01:19:23;;;;;;;2.90;1.67;;;;;;;;;;5153706;27;20047;-57
2022/06/16 01:22:20;;;;;;;3.35;1.50;;;;;;;;;;5153647;27;20043;-55
2022/06/16 01:25:06;;;;;;;6.88;2.95;;;;;;;;;;5134857;27;20129;-56
2022/06/16 01:28:00;;;;;;;3.13;1.60;;;;;;;;;;5153896;27;20078;-48
2022/06/16 01:30:54;;;;;;;2.05;1.52;;;;;;;;;;5153825;27;20176;-58
2022/06/16 01:33:45;;;;;;;7.22;2.10;;;;;;;;;;5153894;27;20031;-58
2022/06/16 01:36:22;;;;;;;3.10;1.58;;;;;;;;;;5135251;27;20039;-52
2022/06/16 01:39:06;;;;;;;2.72;1.50;;;;;;;;;;5135872;27;20117;-58
2022/06/16 01:41:44;;;;;;;3.15;1.70;;;;;;;;;;5153590;27;20039;-52
2022/06/16 01:44:14;;;;;;;2.88;1.50;;;;;;;;;;5153629;27;20552;-56
2022/06/16 01:46:46;;;;;;;1.83;1.25;;;;;;;;;;5135193;27;20458;-53
2022/06/16 01:49:29;;;;;;;2.97;1.40;;;;;;;;;;5134961;27;20523;-57
2022/06/16 01:52:11;;;;;;;2.20;1.45;;;;;;;;;;5153930;27;20046;-58
2022/06/16 01:54:46;;;;;;;2.58;1.08;;;;;;;;;;5153383;27;20509;-57
2022/06/16 01:57:22;;;;;;;1.73;1.30;;;;;;;;;;5153611;27;20505;-50
2022/06/16 02:00:09;;;;;;;1.90;1.15;;;;;;;;;;5135070;27;20031;-51
2022/06/16 02:02:51;;;;;;;14.82;6.85;;;;;;;;;;5153547;27;20031;-58
2022/06/16 02:05:36;;;;;;;3.85;1.27;;;;;;;;;;5134845;27;20444;-57
2022/06/16 02:08:15;;;;;;;3.25;1.20;;;;;;;;;;5153524;27;20070;-45
2022/06/16 02:11:14;;;;;;;1.73;0.95;;;;;;;;;;5153308;27;20465;-58
2022/06/16 02:13:49;;;;;;;1.92;0.90;;;;;;;;;;5131053;28;20524;-58
2022/06/16 02:16:27;;;;;;;0.95;0.80;;;;;;;;;;5132693;27;20084;-56
2022/06/16 02:18:56;;;;;;;1.70;0.80;;;;;;;;;;5131078;28;20047;-57
2022/06/16 02:21:23;;;;;;;2.78;0.70;;;;;;;;;;5132656;27;20411;-58
2022/06/16 02:23:53;;;;;;;0.77;0.52;;;;;;;;;;5132515;28;20035;-58
2022/06/16 02:26:21;;;;;;;2.38;0.90;;;;;;;;;;5131446;28;20501;-58
2022/06/16 02:28:52;;;;;;;0.98;0.63;;;;;;;;;;5132465;27;20440;-57
2022/06/16 02:31:39;;;;;;;0.93;0.60;;;;;;;;;;5131190;28;20039;-58
2022/06/16 02:34:31;;;;;;;0.95;0.50;;;;;;;;;;5131244;28;20054;-58
2022/06/16 02:37:29;;;;;;;8.73;1.05;;;;;;;;;;5133117;27;20035;-58
2022/06/16 02:40:50;;;;;;;1.85;0.57;;;;;;;;;;5134865;27;20051;-44
2022/06/16 02:43:35;;;;;;;0.60;0.60;;;;;;;;;;5072589;28;20049;-44
2022/06/16 02:46:29;;;;;;;1.95;0.50;;;;;;;;;;5072878;28;20406;-56
2022/06/16 02:49:01;;;;;;;0.57;0.50;;;;;;;;;;5123196;27;20085;-50
2022/06/16 02:51:50;;;;;;;1.02;0.50;;;;;;;;;;5134710;27;20431;-46
2022/06/16 02:54:23;;;;;;;2.63;0.55;;;;;;;;;;5135812;27;20038;-58
2022/06/16 02:57:25;;;;;;;1.05;0.57;;;;;;;;;;5134393;27;20130;-58
2022/06/16 02:59:57;;;;;;;0.70;0.70;;;;;;;;;;5134338;27;20322;-46
2022/06/16 03:02:27;;;;;;;0.70;0.57;;;;;;;;;;5134484;27;20055;-56
2022/06/16 03:04:56;;;;;;;1.83;1.00;;;;;;;;;;5134644;27;20076;-58
2022/06/16 03:07:25;;;;;;;1.65;0.70;;;;;;;;;;5134266;27;20406;-58
2022/06/16 03:10:50;;;;;;;1.15;0.63;;;;;;;;;;5134247;27;20462;-46
2022/06/16 03:13:04;;;;;;;1.42;0.80;;;;;;;;;;5134136;27;20122;-58
2022/06/16 03:15:31;;;;;;;0.80;0.57;;;;;;;;;;5134348;27;20504;-57
2022/06/16 03:17:58;;;;;;;1.45;0.98;;;;;;;;;;5134245;27;20061;-58
2022/06/16 03:20:26;;;;;;;0.90;0.70;;;;;;;;;;5134893;27;20043;-58
2022/06/16 03:22:53;;;;;;;2.47;0.70;;;;;;;;;;5135257;27;20438;-57
2022/06/16 03:25:20;;;;;;;1.05;0.60;;;;;;;;;;5131150;27;20065;-59
2022/06/16 03:27:49;;;;;;;3.22;0.73;;;;;;;;;;5113310;28;20036;-57
2022/06/16 03:30:18;;;;;;;0.82;0.60;;;;;;;;;;5113324;28;20036;-58
2022/06/16 03:32:45;;;;;;;1.52;0.70;;;;;;;;;;5114320;28;20047;-57
2022/06/16 03:35:13;;;;;;;33.22;21.98;;;;;;;;;;5124661;27;20045;-58
2022/06/16 03:37:41;;;;;;;3.95;1.85;;;;;;;;;;5135037;27;20402;-57
2022/06/16 03:40:13;;;;;;;2.28;0.50;;;;;;;;;;5133597;27;20122;-58
2022/06/16 03:42:41;;;;;;;0.88;0.63;;;;;;;;;;5133447;27;20070;-58
2022/06/16 03:45:08;;;;;;;1.02;0.50;;;;;;;;;;5133428;27;20061;-49
2022/06/16 03:47:39;;;;;;;0.30;0.30;;;;;;;;;;5133472;27;20043;-47
2022/06/16 03:50:08;;;;;;;0.70;0.60;;;;;;;;;;5133518;27;20047;-56
2022/06/16 03:52:38;;;;;;;0.52;0.45;;;;;;;;;;5134757;27;20115;-55
2022/06/16 03:55:07;;;;;;;0.52;0.40;;;;;;;;;;5133450;27;20108;-54
2022/06/16 03:57:36;;;;;;;0.95;0.47;;;;;;;;;;5133321;27;20070;-57
2022/06/16 04:00:06;;;;;;;25.48;11.75;;;;;;;;;;5133320;27;20524;-59
2022/06/16 04:02:47;;;;;;;3.60;1.25;;;;;;;;;;5134473;27;20081;-56
2022/06/16 04:05:23;;;;;;;0.60;0.40;;;;;;;;;;5133140;27;20043;-56
2022/06/16 04:08:07;;;;;;;0.70;0.50;;;;;;;;;;5133186;27;20043;-58
2022/06/16 04:10:37;;;;;;;1.15;0.65;;;;;;;;;;5132916;27;20448;-51
2022/06/16 04:13:05;;;;;;;0.70;0.57;;;;;;;;;;5145444;27;20072;-54
2022/06/16 04:15:33;;;;;;;1.27;0.73;;;;;;;;;;5153821;27;20080;-58
2022/06/16 04:18:03;;;;;;;0.50;0.45;;;;;;;;;;5153819;27;20347;-58
2022/06/16 04:20:34;;;;;;;0.82;0.60;;;;;;;;;;5153566;27;20049;-54
2022/06/16 04:23:10;;;;;;;0.65;0.50;;;;;;;;;;5153532;27;20042;-58
2022/06/16 04:25:40;;;;;;;1.30;0.70;;;;;;;;;;5153721;27;20070;-58
2022/06/16 04:28:21;;;;;;;1.55;1.10;;;;;;;;;;5153505;27;20047;-58
2022/06/16 04:30:52;;;;;;;2.97;1.23;;;;;;;;;;5153277;27;20513;-57
2022/06/16 04:33:26;;;;;;;0.70;0.60;;;;;;;;;;5153136;27;20119;-57
2022/06/16 04:36:00;;;;;;;0.70;0.50;;;;;;;;;;5136545;27;20047;-46
2022/06/16 04:38:33;;;;;;;2.08;0.60;;;;;;;;;;5132883;27;20035;-59
2022/06/16 04:41:01;;;;;;;0.95;0.57;;;;;;;;;;5132512;27;20435;-58
2022/06/16 04:43:31;;;;;;;2.92;0.60;;;;;;;;;;5132436;27;20042;-50
2022/06/16 04:46:00;;;;;;;0.77;0.60;;;;;;;;;;5133902;27;20038;-58
2022/06/16 04:48:38;;;;;;;0.50;0.40;;;;;;;;;;5133666;27;20031;-54
2022/06/16 04:51:16;;;;;;;1.27;0.57;;;;;;;;;;5132457;27;20044;-53
2022/06/16 04:53:47;;;;;;;2.55;0.60;;;;;;;;;;5132116;27;20042;-58
2022/06/16 04:56:23;;;;;;;0.90;0.60;;;;;;;;;;5132198;27;20055;-45
2022/06/16 04:58:56;;;;;;;3.03;0.50;;;;;;;;;;5132097;27;20051;-59
2022/06/16 05:01:46;;;;;;;2.80;0.63;;;;;;;;;;5131842;27;20125;-58
2022/06/16 05:04:31;;;;;;;2.20;1.10;;;;;;;;;;5132472;27;20043;-53
2022/06/16 05:07:12;;;;;;;1.10;0.70;;;;;;;;;;5132133;27;20039;-53
2022/06/16 05:10:03;;;;;;;3.60;0.60;;;;;;;;;;5132179;27;20039;-59
2022/06/16 05:12:57;;;;;;;1.02;0.70;;;;;;;;;;5131301;27;20047;-52
2022/06/16 05:15:40;;;;;;;0.95;0.60;;;;;;;;;;5133358;27;20039;-57
2022/06/16 05:18:30;;;;;;;0.95;0.52;;;;;;;;;;5125008;27;20047;-58
2022/06/16 05:21:15;;;;;;;0.55;0.47;;;;;;;;;;5131616;27;20401;-58
2022/06/16 05:24:08;;;;;;;0.98;0.57;;;;;;;;;;5133183;27;20074;-58
2022/06/16 05:27:00;;;;;;;1.25;0.60;;;;;;;;;;5094461;27;20035;-58
2022/06/16 05:29:48;;;;;;;1.10;0.55;;;;;;;;;;5132674;28;20055;-57
2022/06/16 05:32:38;;;;;;;1.17;0.63;;;;;;;;;;5094303;27;20100;-51
2022/06/16 05:35:12;;;;;;;0.90;0.50;;;;;;;;;;5132047;28;20103;-59
2022/06/16 05:37:47;;;;;;;0.50;0.50;;;;;;;;;;5131773;28;20047;-58
2022/06/16 05:40:30;;;;;;;0.85;0.40;;;;;;;;;;5133096;27;20081;-47
2022/06/16 05:42:57;;;;;;;0.98;0.60;;;;;;;;;;5132854;27;20058;-58
2022/06/16 05:46:05;;;;;;;1.48;0.68;;;;;;;;;;5124821;28;20048;-51
2022/06/16 05:48:43;;;;;;;0.88;0.68;;;;;;;;;;5131956;28;20455;-49
2022/06/16 05:51:15;;;;;;;0.70;0.50;;;;;;;;;;5131699;28;20141;-59
2022/06/16 05:53:55;;;;;;;1.20;0.55;;;;;;;;;;5131722;28;20443;-59
2022/06/16 05:56:27;;;;;;;31.13;16.40;;;;;;;;;;5131466;28;20043;-57
2022/06/16 05:58:55;;;;;;;1.65;1.02;;;;;;;;;;5131434;28;20054;-60
2022/06/16 06:01:24;;;;;;;1.58;0.73;;;;;;;;;;5132610;27;20095;-59
2022/06/16 06:04:01;;;;;;;0.85;0.68;;;;;;;;;;5131673;28;20051;-58
2022/06/16 06:06:30;;;;;;;0.60;0.60;;;;;;;;;;5067407;28;20040;-59
2022/06/16 06:17:24;;;;;;;0.60;0.52;;;;;;;;;;5077547;28;20079;-57
2022/06/16 06:19:53;;;;;;;0.73;0.52;;;;;;;;;;5114615;28;20042;-59
2022/06/16 06:22:24;;;;;;;0.70;0.40;;;;;;;;;;5097777;28;20044;-58
2022/06/16 06:24:58;;;;;;;1.38;0.60;;;;;;;;;;5114654;28;20570;-58
2022/06/16 06:27:34;;;;;;;1.40;0.60;;;;;;;;;;5114709;28;20093;-49
2022/06/16 06:30:11;;;;;;;0.60;0.55;;;;;;;;;;5114412;28;20398;-48
2022/06/16 06:32:38;;;;;;;2.88;1.30;;;;;;;;;;5114406;28;20070;-59
2022/06/16 06:35:07;;;;;;;1.55;0.88;;;;;;;;;;5114367;28;20054;-58
2022/06/16 06:37:35;;;;;;;1.40;0.60;;;;;;;;;;5115817;28;20070;-52
2022/06/16 06:40:04;;;;;;;4.30;0.70;;;;;;;;;;5114263;28;20078;-59
2022/06/16 06:42:31;;;;;;;3.63;1.35;;;;;;;;;;5115402;28;20043;-59
2022/06/16 06:44:58;;;;;;;25.98;4.68;;;;;;;;;;5115467;28;20043;-56
2022/06/16 06:47:29;;;;;;;4.40;1.48;;;;;;;;;;5115348;27;20117;-57
2022/06/16 06:49:57;;;;;;;1.60;0.80;;;;;;;;;;5115309;28;20568;-47
2022/06/16 06:52:24;;;;;;;3.00;1.10;;;;;;;;;;5115046;27;20055;-58
2022/06/16 06:54:52;;;;;;;1.00;0.60;;;;;;;;;;5115112;28;20043;-52
2022/06/16 06:57:23;;;;;;;0.70;0.60;;;;;;;;;;5115358;28;20080;-59
2022/06/16 06:59:51;;;;;;;4.20;1.25;;;;;;;;;;5114989;27;20067;-58
2022/06/16 07:02:19;;;;;;;3.10;0.77;;;;;;;;;;5115009;27;20047;-48
2022/06/16 07:04:46;;;;;;;0.85;0.50;;;;;;;;;;5115053;28;20051;-56
2022/06/16 07:07:17;;;;;;;1.13;0.73;;;;;;;;;;5115585;28;20040;-46
2022/06/16 07:09:45;;;;;;;6.65;2.28;;;;;;;;;;5115013;28;20048;-56
2022/06/16 07:12:16;;;;;;;0.68;0.52;;;;;;;;;;5114908;28;20044;-59
2022/06/16 07:14:46;;;;;;;2.30;0.50;;;;;;;;;;5114904;27;20498;-47
2022/06/16 07:17:16;;;;;;;0.73;0.47;;;;;;;;;;5114985;28;20036;-59
2022/06/16 07:19:43;;;;;;;1.80;0.68;;;;;;;;;;5114656;28;20039;-52
2022/06/16 07:22:10;;;;;;;0.50;0.43;;;;;;;;;;5114242;28;20130;-51
2022/06/16 07:24:38;;;;;;;2.50;0.40;;;;;;;;;;5113515;28;20039;-47
2022/06/16 07:27:07;;;;;;;0.93;0.50;;;;;;;;;;5114753;28;20116;-58
2022/06/16 07:29:35;;;;;;;0.60;0.50;;;;;;;;;;5114627;28;20032;-45
2022/06/16 07:32:10;;;;;;;1.10;0.52;;;;;;;;;;5114495;28;20135;-59
2022/06/16 07:34:38;;;;;;;3.10;0.50;;;;;;;;;;5113460;28;20114;-57
2022/06/16 07:37:05;;;;;;;2.30;0.50;;;;;;;;;;5112493;28;20444;-59
2022/06/16 07:39:32;;;;;;;1.75;0.60;;;;;;;;;;5112488;28;20465;-53
2022/06/16 07:42:00;;;;;;;0.82;0.47;;;;;;;;;;5112589;28;20522;-55
2022/06/16 07:44:27;;;;;;;0.45;0.40;;;;;;;;;;5112623;28;20429;-52
2022/06/16 07:46:55;;;;;;;1.45;0.50;;;;;;;;;;5111178;28;20048;-54
2022/06/16 07:49:27;;;;;;;2.72;0.90;;;;;;;;;;5112415;28;20052;-58
2022/06/16 07:51:57;;;;;;;2.30;0.38;;;;;;;;;;5114378;28;20039;-58
2022/06/16 07:54:25;;;;;;;1.05;0.47;;;;;;;;;;5114222;28;20444;-58
2022/06/16 07:57:13;;;;;;;3.17;0.50;;;;;;;;;;5114130;28;20092;-44
2022/06/16 07:59:53;;;;;;;5.47;1.27;;;;;;;;;;5113927;28;20051;-58
2022/06/16 08:02:21;;;;;;;2.60;0.50;;;;;;;;;;5113842;28;20040;-58
2022/06/16 08:04:48;;;;;;;1.77;0.57;;;;;;;;;;5113905;28;20040;-57
2022/06/16 08:07:16;;;;;;;0.40;0.30;;;;;;;;;;5114082;28;20067;-45
2022/06/16 08:09:44;;;;;;;0.95;0.60;;;;;;;;;;5114271;27;20036;-58
2022/06/16 08:12:14;;;;;;;1.25;0.80;;;;;;;;;;5113601;28;20051;-58
2022/06/16 08:14:45;;;;;;;1.58;0.40;;;;;;;;;;5113537;28;20036;-50
2022/06/16 08:17:17;;;;;;;1.00;0.40;;;;;;;;;;5113796;28;20044;-58
2022/06/16 08:19:45;;;;;;;2.05;0.50;;;;;;;;;;5113597;28;20455;-56
2022/06/16 08:22:13;;;;;;;2.92;0.45;;;;;;;;;;5113510;28;20043;-57
2022/06/16 08:24:43;;;;;;;0.90;0.50;;;;;;;;;;5113447;28;20035;-57
2022/06/16 08:27:11;;;;;;;1.38;0.50;;;;;;;;;;5113500;28;20036;-57
2022/06/16 08:29:42;;;;;;;0.52;0.30;;;;;;;;;;5113418;28;20043;-57
2022/06/16 08:32:13;;;;;;;0.50;0.30;;;;;;;;;;5113420;28;20528;-45
2022/06/16 08:34:41;;;;;;;2.15;0.55;;;;;;;;;;5112504;28;20089;-45
2022/06/16 08:37:09;;;;;;;1.67;0.40;;;;;;;;;;5113207;28;20036;-58
2022/06/16 08:39:36;;;;;;;0.50;0.40;;;;;;;;;;5113121;28;20040;-52
2022/06/16 08:42:13;;;;;;;0.60;0.30;;;;;;;;;;5113348;28;20035;-55
2022/06/16 08:44:46;;;;;;;0.70;0.40;;;;;;;;;;5113013;28;20062;-58
2022/06/16 08:47:21;;;;;;;1.27;0.47;;;;;;;;;;5113297;28;20043;-57
2022/06/16 08:49:57;;;;;;;0.30;0.30;;;;;;;;;;5113246;28;20040;-46
2022/06/16 08:52:46;;;;;;;1.48;0.50;;;;;;;;;;5113306;28;20347;-57
2022/06/16 08:55:48;;;;;;;1.55;0.50;;;;;;;;;;5113231;28;20047;-51
2022/06/16 08:58:44;;;;;;;1.98;0.45;;;;;;;;;;5087325;28;20058;-57
2022/06/16 09:01:59;;;;;;;2.90;0.65;;;;;;;;;;5113012;28;20066;-58
2022/06/16 09:04:31;;;;;;;6.18;1.38;;;;;;;;;;5112802;28;20054;-56
2022/06/16 09:07:01;;;;;;;5.18;1.00;;;;;;;;;;5112693;28;20035;-57
2022/06/16 09:10:15;;;;;;;1.55;0.50;;;;;;;;;;5112535;28;20047;-57
2022/06/16 09:13:01;;;;;;;9.27;1.58;;;;;;;;;;5112371;28;20105;-47
2022/06/16 09:15:37;;;;;;;1.90;0.70;;;;;;;;;;5112625;28;20559;-57
2022/06/16 09:18:26;;;;;;;14.70;2.88;;;;;;;;;;5112812;28;20044;-58
2022/06/16 09:20:59;;;;;;;10.10;1.80;;;;;;;;;;5112317;28;20036;-58
2022/06/16 09:23:52;;;;;;;3.35;0.70;;;;;;;;;;5112511;28;20035;-57
2022/06/16 09:26:49;;;;;;;4.43;1.17;;;;;;;;;;5112406;28;20040;-58
2022/06/16 09:29:49;;;;;;;1.55;0.55;;;;;;;;;;5112287;28;20055;-55
2022/06/16 09:32:42;;;;;;;5.45;2.50;;;;;;;;;;5085532;28;20052;-58
2022/06/16 09:35:21;;;;;;;0.77;0.50;;;;;;;;;;5112129;28;20043;-51
2022/06/16 09:37:57;;;;;;;8.10;1.55;;;;;;;;;;5112419;28;20046;-58
2022/06/16 09:40:36;;;;;;;0.85;0.40;;;;;;;;;;5112671;28;20448;-57
2022/06/16 09:43:31;;;;;;;66.35;41.05;;;;;;;;;;5112502;28;20509;-57
2022/06/16 09:46:12;;;;;;;4.20;2.45;;;;;;;;;;5112189;28;20050;-58
2022/06/16 09:49:06;;;;;;;1.98;0.85;;;;;;;;;;5116424;28;20042;-53
2022/06/16 09:51:40;;;;;;;1.40;0.50;;;;;;;;;;5117092;28;20093;-59
2022/06/16 09:54:17;;;;;;;1.00;0.60;;;;;;;;;;5116206;28;20043;-49
2022/06/16 09:56:55;;;;;;;6.30;1.52;;;;;;;;;;5116228;28;20043;-57
2022/06/16 09:59:34;;;;;;;1.63;0.70;;;;;;;;;;5116556;28;20066;-56
2022/06/16 10:02:06;;;;;;;23.10;6.32;;;;;;;;;;5116284;28;20474;-59
2022/06/16 10:04:34;;;;;;;10.95;2.30;;;;;;;;;;5116161;28;20086;-54
2022/06/16 10:07:16;;;;;;;13.57;2.63;;;;;;;;;;5116347;28;20119;-58
2022/06/16 10:10:16;;;;;;;14.73;2.75;;;;;;;;;;5116020;28;20044;-58
2022/06/16 10:13:04;;;;;;;1.58;0.82;;;;;;;;;;5115920;28;20044;-58
2022/06/16 10:15:40;;;;;;;4.95;1.20;;;;;;;;;;5116166;28;20044;-59
2022/06/16 10:18:09;;;;;;;6.00;2.38;;;;;;;;;;5116144;28;20040;-58
2022/06/16 10:20:37;;;;;;;7.05;2.22;;;;;;;;;;5115944;28;20036;-57
2022/06/16 10:23:12;;;;;;;1.88;0.70;;;;;;;;;;5115868;28;20097;-46
2022/06/16 10:25:47;;;;;;;1.27;0.47;;;;;;;;;;5115845;28;20043;-41
2022/06/16 10:28:52;;;;;;;1.35;0.75;;;;;;;;;;5115911;28;20491;-58
2022/06/16 10:31:40;;;;;;;1.85;0.68;;;;;;;;;;5078247;28;20147;-57
2022/06/16 10:34:36;;;;;;;0.70;0.60;;;;;;;;;;5114470;28;20118;-58
2022/06/16 10:37:10;;;;;;;2.53;0.47;;;;;;;;;;5115854;28;20071;-58
2022/06/16 10:39:48;;;;;;;2.45;0.73;;;;;;;;;;5115608;28;20563;-57
2022/06/16 10:42:20;;;;;;;34.90;6.68;;;;;;;;;;5115113;28;20054;-59
2022/06/16 10:44:51;;;;;;;1.23;0.52;;;;;;;;;;5115386;28;20463;-45
2022/06/16 10:47:48;;;;;;;2.33;0.45;;;;;;;;;;5115536;28;20494;-59
2022/06/16 10:50:21;;;;;;;6.63;1.50;;;;;;;;;;5115363;28;20571;-44
2022/06/16 10:53:01;;;;;;;2.90;0.50;;;;;;;;;;5115354;28;20040;-43
2022/06/16 10:55:36;;;;;;;6.32;0.80;;;;;;;;;;5115287;28;20526;-54
2022/06/16 10:58:19;;;;;;;2.60;0.47;;;;;;;;;;5114573;28;20495;-58
2022/06/16 11:01:00;;;;;;;1.75;0.40;;;;;;;;;;5114945;28;20043;-51
2022/06/16 11:03:35;;;;;;;1.38;0.57;;;;;;;;;;5115184;28;20449;-59
2022/06/16 11:06:05;;;;;;;4.95;1.40;;;;;;;;;;5115078;28;20472;-45
2022/06/16 11:08:42;;;;;;;1.17;0.40;;;;;;;;;;5115293;28;20044;-57
2022/06/16 11:11:30;;;;;;;1.17;0.30;;;;;;;;;;5115042;28;20071;-55
2022/06/16 11:13:57;;;;;;;0.30;0.30;;;;;;;;;;5114882;28;20102;-58
2022/06/16 11:16:30;;;;;;;0.77;0.40;;;;;;;;;;5114963;28;20044;-57
2022/06/16 11:19:00;;;;;;;;;;;;;;;;;;5115308;28;20047;-56
2022/06/16 11:21:32;;;;;;;0.88;0.40;;;;;;;;;;5114816;28;19919;-57
2022/06/16 11:24:06;;;;;;;0.30;0.30;;;;;;;;;;5114678;28;20078;-47
2022/06/16 11:26:41;;;;;;;0.60;0.40;;;;;;;;;;5114799;28;20050;-53
2022/06/16 11:29:12;;;;;;;0.60;0.30;;;;;;;;;;5114845;28;20502;-45
2022/06/16 11:31:44;;;;;;;4.53;1.83;;;;;;;;;;5114388;28;20071;-57
2022/06/16 11:34:20;;;;;;;0.63;0.47;;;;;;;;;;5114396;28;20104;-45
2022/06/16 11:37:12;;;;;;;1.67;0.40;;;;;;;;;;5114360;28;20047;-58
2022/06/16 11:40:13;;;;;;;0.30;0.30;;;;;;;;;;5114406;28;20398;-58
2022/06/16 11:43:13;;;;;;;1.20;0.40;;;;;;;;;;5114137;28;20039;-58
2022/06/16 11:45:57;;;;;;;0.85;0.47;;;;;;;;;;5114214;28;20496;-58
2022/06/16 11:48:34;;;;;;;3.58;0.40;;;;;;;;;;5114126;28;20382;-59
2022/06/16 11:51:29;;;;;;;1.17;0.50;;;;;;;;;;5113036;28;20032;-44
2022/06/16 11:54:05;;;;;;;2.63;0.43;;;;;;;;;;5114134;28;20044;-52
2022/06/16 11:56:50;;;;;;;0.88;0.60;;;;;;;;;;5114093;28;20040;-57
2022/06/16 11:59:54;;;;;;;1.40;0.60;;;;;;;;;;5113965;28;20046;-45
2022/06/16 12:02:39;;;;;;;2.78;0.50;;;;;;;;;;5113898;28;20390;-58
2022/06/16 12:05:27;;;;;;;2.63;0.60;;;;;;;;;;5113831;28;20096;-55
2022/06/16 12:08:00;;;;;;;1.48;0.47;;;;;;;;;;5113520;28;20040;-56
2022/06/16 12:10:45;;;;;;;3.70;0.50;;;;;;;;;;5113710;28;20035;-58
2022/06/16 12:13:28;;;;;;;1.90;0.47;;;;;;;;;;5113573;28;20051;-58
2022/06/16 12:16:20;;;;;;;1.05;0.30;;;;;;;;;;5113587;28;20452;-58
2022/06/16 12:19:10;;;;;;;1.17;0.63;;;;;;;;;;5113560;28;20036;-58
2022/06/16 12:21:59;;;;;;;1.55;0.65;;;;;;;;;;5113598;28;20042;-57
2022/06/16 12:24:41;;;;;;;2.78;0.50;;;;;;;;;;5113247;28;20048;-57
2022/06/16 12:27:15;;;;;;;1.90;0.40;;;;;;;;;;5113824;28;20096;-45
2022/06/16 12:29:57;;;;;;;0.57;0.35;;;;;;;;;;5113282;28;20523;-58
2022/06/16 12:32:52;;;;;;;2.42;0.50;;;;;;;;;;5113426;28;20035;-57
2022/06/16 12:35:50;;;;;;;0.90;0.50;;;;;;;;;;5113362;28;20093;-52
2022/06/16 12:38:25;;;;;;;0.95;0.40;;;;;;;;;;5082310;28;20402;-58
2022/06/16 12:41:02;;;;;;;1.17;0.50;;;;;;;;;;5113182;28;20039;-58
2022/06/16 12:43:34;;;;;;;5.43;0.40;;;;;;;;;;5113043;28;20047;-56
2022/06/16 12:46:08;;;;;;;2.67;0.55;;;;;;;;;;5113293;28;20043;-43
2022/06/16 12:48:41;;;;;;;1.60;0.60;;;;;;;;;;5113020;28;20065;-47
2022/06/16 12:51:12;;;;;;;2.40;0.40;;;;;;;;;;5113072;28;20039;-44
2022/06/16 12:53:49;;;;;;;3.60;0.50;;;;;;;;;;5112977;28;20036;-56
2022/06/16 12:56:30;;;;;;;4.00;0.60;;;;;;;;;;5113011;28;20071;-59
2022/06/16 12:59:23;;;;;;;1.95;0.43;;;;;;;;;;5112858;28;20406;-58
2022/06/16 13:01:55;;;;;;;4.18;0.40;;;;;;;;;;5104229;28;20056;-55
2022/06/16 13:04:29;;;;;;;2.28;0.52;;;;;;;;;;5112788;28;20035;-57
2022/06/16 13:06:59;;;;;;;0.52;0.35;;;;;;;;;;5112700;28;20043;-44
2022/06/16 13:09:27;;;;;;;0.40;0.30;;;;;;;;;;5112330;28;20043;-57
2022/06/16 13:12:02;;;;;;;0.80;0.47;;;;;;;;;;5112559;28;20047;-58
2022/06/16 13:14:35;;;;;;;1.75;0.40;;;;;;;;;;5112933;28;20510;-58
2022/06/16 13:17:07;;;;;;;6.43;0.70;;;;;;;;;;5112623;28;20058;-58
2022/06/16 13:19:45;;;;;;;1.92;0.40;;;;;;;;;;5112878;28;20036;-44
2022/06/16 13:22:31;;;;;;;1.58;0.50;;;;;;;;;;5112282;28;20038;-58
2022/06/16 13:25:04;;;;;;;4.53;1.10;;;;;;;;;;5112210;28;20083;-58
2022/06/16 13:27:40;;;;;;;1.73;0.50;;;;;;;;;;5112871;28;20123;-58
2022/06/16 13:30:08;;;;;;;0.98;0.40;;;;;;;;;;5112472;28;20046;-45
2022/06/16 13:32:49;;;;;;;0.88;0.40;;;;;;;;;;5111661;28;20074;-43
2022/06/16 13:35:22;;;;;;;0.40;0.35;;;;;;;;;;5112455;28;20043;-58
2022/06/16 13:38:11;;;;;;;3.42;0.60;;;;;;;;;;5112427;28;20056;-58
2022/06/16 13:40:41;;;;;;;1.80;0.60;;;;;;;;;;5112388;28;20448;-57
2022/06/16 13:43:19;;;;;;;1.77;0.40;;;;;;;;;;5112433;28;20093;-57
2022/06/16 13:45:52;;;;;;;0.85;0.50;;;;;;;;;;5112288;28;20403;-59
2022/06/16 13:48:45;;;;;;;1.20;0.40;;;;;;;;;;5112211;28;20036;-57
2022/06/16 13:51:41;;;;;;;3.70;1.73;;;;;;;;;;5112244;28;20349;-57
2022/06/16 13:54:13;;;;;;;0.60;0.43;;;;;;;;;;5112485;28;20044;-57
2022/06/16 13:56:43;;;;;;;1.10;0.60;;;;;;;;;;5112067;28;20040;-55
2022/06/16 13:59:28;;;;;;;2.08;0.60;;;;;;;;;;5112311;28;20035;-46
2022/06/16 14:02:18;;;;;;;0.80;0.60;;;;;;;;;;5112238;28;20265;-47
2022/06/16 14:05:06;;;;;;;0.73;0.40;;;;;;;;;;5112024;28;20104;-58
2022/06/16 14:07:51;;;;;;;0.47;0.47;;;;;;;;;;5112221;28;20067;-58
2022/06/16 14:10:18;;;;;;;1.30;0.65;;;;;;;;;;5112018;28;20035;-56
2022/06/16 14:12:56;;;;;;;3.10;0.60;;;;;;;;;;5111893;28;20044;-58
2022/06/16 14:15:56;;;;;;;1.17;0.50;;;;;;;;;;5112238;28;20063;-47
2022/06/16 14:18:51;;;;;;;3.25;0.45;;;;;;;;;;5112108;28;20059;-58
2022/06/16 14:21:42;;;;;;;1.52;0.70;;;;;;;;;;5112108;28;20491;-58
2022/06/16 14:24:24;;;;;;;0.75;0.43;;;;;;;;;;5111833;28;20055;-58
2022/06/16 14:26:52;;;;;;;2.13;0.40;;;;;;;;;;5112002;28;20050;-44
2022/06/16 14:29:26;;;;;;;1.45;0.40;;;;;;;;;;5111755;28;20047;-53
2022/06/16 14:32:01;;;;;;;3.10;0.40;;;;;;;;;;5110915;28;20066;-57
2022/06/16 14:34:49;;;;;;;1.05;0.40;;;;;;;;;;5114620;28;20440;-58
2022/06/16 14:37:20;;;;;;;0.60;0.40;;;;;;;;;;5074656;28;20044;-43
2022/06/16 14:40:13;;;;;;;0.50;0.40;;;;;;;;;;5114549;28;20063;-58
2022/06/16 14:42:43;;;;;;;0.93;0.63;;;;;;;;;;5113941;28;20047;-57
2022/06/16 14:45:23;;;;;;;0.40;0.30;;;;;;;;;;5114228;28;20140;-58
2022/06/16 14:47:57;;;;;;;0.88;0.50;;;;;;;;;;5114945;28;20044;-58
2022/06/16 14:50:34;;;;;;;0.90;0.60;;;;;;;;;;5115324;28;20032;-46
2022/06/16 14:53:16;;;;;;;2.13;0.93;;;;;;;;;;5114217;28;20096;-44
2022/06/16 14:55:50;;;;;;;1.27;0.40;;;;;;;;;;5115316;28;20036;-58
2022/06/16 14:58:19;;;;;;;0.38;0.32;;;;;;;;;;5115096;28;20139;-51
2022/06/16 15:00:54;;;;;;;0.93;0.45;;;;;;;;;;5115202;27;20452;-45
2022/06/16 15:03:29;;;;;;;0.65;0.30;;;;;;;;;;5115250;28;20043;-48
2022/06/16 15:06:04;;;;;;;2.70;0.40;;;;;;;;;;5114922;28;21817;-58
2022/06/16 15:08:35;;;;;;;0.80;0.40;;;;;;;;;;5115178;28;20039;-58
2022/06/16 15:11:05;;;;;;;0.73;0.40;;;;;;;;;;5115087;28;20530;-58
2022/06/16 15:13:40;;;;;;;1.90;0.50;;;;;;;;;;5115078;28;20096;-58
2022/06/16 15:18:10;;;;;;;1.85;0.40;;;;;;;;;;5115006;28;20085;-58
2022/06/16 15:19:00;;;;;;;1.77;0.55;;;;;;;;;;5115158;28;20100;-59
2022/06/16 15:21:35;;;;;;;0.77;0.40;;;;;;;;;;5114751;28;20126;-58
2022/06/16 15:24:03;;;;;;;3.85;1.00;;;;;;;;;;5113413;28;20135;-58
2022/06/16 15:26:31;;;;;;;2.05;0.40;;;;;;;;;;5114519;28;20048;-57
2022/06/16 15:29:08;;;;;;;4.57;1.20;;;;;;;;;;5114875;28;20078;-56
2022/06/16 15:31:38;;;;;;;0.93;0.45;;;;;;;;;;5114540;28;20482;-52
2022/06/16 15:36:54;;;;;;;0.82;0.50;;;;;;;;;;5114448;28;20063;-58
2022/06/16 15:39:30;;;;;;;2.45;0.40;;;;;;;;;;5114461;28;20101;-58
2022/06/16 15:42:05;;;;;;;0.95;0.40;;;;;;;;;;5114395;28;20036;-56
2022/06/16 15:44:59;;;;;;;1.02;0.43;;;;;;;;;;5114094;28;20398;-58
2022/06/16 15:47:35;;;;;;;0.57;0.52;;;;;;;;;;5114247;28;20062;-57
2022/06/16 15:50:10;;;;;;;1.75;0.43;;;;;;;;;;5114197;28;20043;-58
2022/06/16 15:52:44;;;;;;;1.25;0.60;;;;;;;;;;5114151;27;20409;-56
2022/06/16 15:55:21;;;;;;;2.53;0.40;;;;;;;;;;5114148;27;20113;-56
2022/06/16 15:57:49;;;;;;;1.75;0.65;;;;;;;;;;5113880;28;20044;-57